createdAt,value
2023-05-15T00:00:54.257Z,21.71
2023-05-15T00:03:39.545Z,21.68
2023-05-15T00:06:24.578Z,21.68
2023-05-15T00:09:09.852Z,21.65
2023-05-15T00:11:55.121Z,21.63
2023-05-15T00:14:40.146Z,21.62
2023-05-15T00:17:25.854Z,21.60
2023-05-15T00:20:11.454Z,21.58
2023-05-15T00:22:56.912Z,21.56
2023-05-15T00:25:42.177Z,21.54
2023-05-15T00:28:27.370Z,21.54
2023-05-15T00:31:13.173Z,21.52
2023-05-15T00:33:58.208Z,21.52
2023-05-15T00:36:44.184Z,21.49
2023-05-15T00:39:28.948Z,21.48
2023-05-15T00:42:16.289Z,21.46
2023-05-15T00:45:02.692Z,21.45
2023-05-15T00:47:49.205Z,21.44
2023-05-15T00:50:34.424Z,21.43
2023-05-15T00:53:19.582Z,21.41
2023-05-15T00:56:05.921Z,21.38
2023-05-15T00:58:53.874Z,21.37
2023-05-15T01:01:39.009Z,21.35
2023-05-15T01:04:24.134Z,21.34
2023-05-15T01:07:09.237Z,21.34
2023-05-15T01:09:55.452Z,21.34
2023-05-15T01:12:41.632Z,21.30
2023-05-15T01:15:26.522Z,21.28
2023-05-15T01:18:11.992Z,21.28
2023-05-15T01:21:37.399Z,21.26
2023-05-15T01:24:43.915Z,21.24
2023-05-15T01:27:45.056Z,21.23
2023-05-15T01:30:33.707Z,21.21
2023-05-15T01:33:22.248Z,21.19
2023-05-15T01:36:16.467Z,21.19
2023-05-15T01:39:03.889Z,21.19
2023-05-15T01:42:02.533Z,21.16
2023-05-15T01:44:53.513Z,21.16
2023-05-15T01:47:43.856Z,21.14
2023-05-15T01:50:33.466Z,21.11
2023-05-15T01:53:20.178Z,21.10
2023-05-15T01:56:08.202Z,21.08
2023-05-15T01:58:55.324Z,21.06
2023-05-15T02:01:41.649Z,21.06
2023-05-15T02:04:27.827Z,21.04
2023-05-15T02:07:14.700Z,21.03
2023-05-15T02:10:00.461Z,21.02
2023-05-15T02:12:46.492Z,21.01
2023-05-15T02:15:31.873Z,21.00
2023-05-15T02:18:16.894Z,21.00
2023-05-15T02:21:02.901Z,20.97
2023-05-15T02:23:48.390Z,20.94
2023-05-15T02:26:47.409Z,20.93
2023-05-15T02:29:52.172Z,20.93
2023-05-15T02:32:55.144Z,20.91
2023-05-15T02:35:52.908Z,20.90
2023-05-15T02:38:47.703Z,20.88
2023-05-15T02:41:35.366Z,20.85
2023-05-15T02:44:21.889Z,20.82
2023-05-15T02:47:08.280Z,20.81
2023-05-15T02:49:53.320Z,20.80
2023-05-15T02:52:38.604Z,20.79
2023-05-15T02:55:23.939Z,20.78
2023-05-15T02:58:09.391Z,20.75
2023-05-15T03:00:54.222Z,20.73
2023-05-15T03:03:39.124Z,20.72
2023-05-15T03:06:24.078Z,20.72
2023-05-15T03:09:08.949Z,20.71
2023-05-15T03:11:53.900Z,20.70
2023-05-15T03:14:38.812Z,20.70
2023-05-15T03:17:23.846Z,20.69
2023-05-15T03:20:09.096Z,20.69
2023-05-15T03:22:54.280Z,20.69
2023-05-15T03:25:39.463Z,20.70
2023-05-15T03:28:24.416Z,20.71
2023-05-15T03:31:09.470Z,20.72
2023-05-15T03:33:54.632Z,20.72
2023-05-15T03:36:39.517Z,20.77
2023-05-15T03:39:24.333Z,20.81
2023-05-15T03:42:09.218Z,20.85
2023-05-15T03:44:53.997Z,20.88
2023-05-15T03:47:38.967Z,20.91
2023-05-15T03:50:23.774Z,20.91
2023-05-15T03:53:08.766Z,20.91
2023-05-15T03:55:53.960Z,20.90
2023-05-15T03:58:39.137Z,20.91
2023-05-15T04:01:24.422Z,20.95
2023-05-15T04:04:09.375Z,20.97
2023-05-15T04:06:54.250Z,20.99
2023-05-15T04:09:39.115Z,20.99
2023-05-15T04:12:24.247Z,21.01
2023-05-15T04:15:19.534Z,20.97
2023-05-15T04:18:07.026Z,20.96
2023-05-15T04:20:52.748Z,20.97
2023-05-15T04:23:37.847Z,20.97
2023-05-15T04:28:14.068Z,20.98
2023-05-15T04:30:40.705Z,20.99
2023-05-15T04:33:07.465Z,20.97
2023-05-15T04:35:34.128Z,20.95
2023-05-15T04:38:00.612Z,20.93
2023-05-15T04:40:26.931Z,20.92
2023-05-15T04:42:53.331Z,20.90
2023-05-15T04:45:19.725Z,20.89
2023-05-15T04:47:46.278Z,20.89
2023-05-15T04:50:12.906Z,20.87
2023-05-15T04:52:39.377Z,20.86
2023-05-15T04:55:06.135Z,20.85
2023-05-15T04:57:32.539Z,20.83
2023-05-15T04:59:58.893Z,20.82
2023-05-15T05:02:25.545Z,20.81
2023-05-15T05:04:52.030Z,20.80
2023-05-15T05:07:18.712Z,20.80
2023-05-15T05:09:45.427Z,20.79
2023-05-15T05:12:12.123Z,20.80
2023-05-15T05:14:40.660Z,20.81
2023-05-15T05:17:07.135Z,20.83
2023-05-15T05:19:33.462Z,20.85
2023-05-15T05:22:04.533Z,20.86
2023-05-15T05:24:32.034Z,20.83
2023-05-15T05:26:58.715Z,20.82
2023-05-15T05:29:26.046Z,20.81
2023-05-15T05:31:52.933Z,20.81
2023-05-15T05:34:19.933Z,20.82
2023-05-15T05:36:46.362Z,20.83
2023-05-15T05:39:12.834Z,20.83
2023-05-15T05:41:39.165Z,20.85
2023-05-15T05:44:05.600Z,20.85
2023-05-15T05:46:32.056Z,20.87
2023-05-15T05:48:58.561Z,20.87
2023-05-15T05:51:25.049Z,20.83
2023-05-15T05:53:51.382Z,20.81
2023-05-15T05:56:18.013Z,20.77
2023-05-15T05:58:44.551Z,20.74
2023-05-15T06:01:11.091Z,20.71
2023-05-15T06:03:39.174Z,20.68
2023-05-15T06:06:06.004Z,20.66
2023-05-15T06:08:32.505Z,20.62
2023-05-15T06:10:58.864Z,20.62
2023-05-15T06:13:25.303Z,20.59
2023-05-15T06:15:51.680Z,20.57
2023-05-15T06:18:18.111Z,20.55
2023-05-15T06:20:44.618Z,20.52
2023-05-15T06:23:11.002Z,20.52
2023-05-15T06:25:37.620Z,20.48
2023-05-15T06:28:04.265Z,20.46
2023-05-15T06:30:30.732Z,20.43
2023-05-15T06:32:57.296Z,20.42
2023-05-15T06:35:24.743Z,20.40
2023-05-15T06:37:52.266Z,20.39
2023-05-15T06:40:19.064Z,20.36
2023-05-15T06:42:45.516Z,20.34
2023-05-15T06:45:11.920Z,20.33
2023-05-15T06:47:38.390Z,20.31
2023-05-15T06:50:05.332Z,20.30
2023-05-15T06:52:31.783Z,20.28
2023-05-15T06:54:58.229Z,20.24
2023-05-15T06:57:24.642Z,20.23
2023-05-15T06:59:51.080Z,20.22
2023-05-15T07:02:17.556Z,20.23
2023-05-15T07:04:44.048Z,20.23
2023-05-15T07:07:10.514Z,20.24
2023-05-15T07:09:37.087Z,20.24
2023-05-15T07:12:04.054Z,20.26
2023-05-15T07:14:30.495Z,20.26
2023-05-15T07:16:57.007Z,20.27
2023-05-15T07:19:23.402Z,20.27
2023-05-15T07:21:49.858Z,20.27
2023-05-15T07:24:16.294Z,20.28
2023-05-15T07:26:50.654Z,20.28
2023-05-15T07:29:25.119Z,20.28
2023-05-15T07:31:51.578Z,20.27
2023-05-15T07:34:18.018Z,20.29
2023-05-15T07:36:44.528Z,20.28
2023-05-15T07:39:10.959Z,20.28
2023-05-15T07:41:37.424Z,20.28
2023-05-15T07:44:03.976Z,20.28
2023-05-15T07:46:30.414Z,20.30
2023-05-15T07:48:56.938Z,20.28
2023-05-15T07:51:23.353Z,20.30
2023-05-15T07:53:49.814Z,20.32
2023-05-15T07:56:16.551Z,20.33
2023-05-15T07:58:42.972Z,20.37
2023-05-15T08:01:09.501Z,20.40
2023-05-15T08:03:36.038Z,20.43
2023-05-15T08:06:02.584Z,20.45
2023-05-15T08:08:29.025Z,20.47
2023-05-15T08:10:55.573Z,20.48
2023-05-15T08:13:22.000Z,20.50
2023-05-15T08:15:48.471Z,20.50
2023-05-15T08:18:14.855Z,20.53
2023-05-15T08:20:41.320Z,20.53
2023-05-15T08:23:08.207Z,20.53
2023-05-15T08:25:34.650Z,20.51
2023-05-15T08:28:02.484Z,20.49
2023-05-15T08:30:29.517Z,20.44
2023-05-15T08:32:55.950Z,20.43
2023-05-15T08:35:22.430Z,20.39
2023-05-15T08:37:48.799Z,20.37
2023-05-15T08:40:15.455Z,20.34
2023-05-15T08:42:46.129Z,20.31
2023-05-15T08:45:14.052Z,20.30
2023-05-15T08:47:42.714Z,20.30
2023-05-15T08:50:14.044Z,20.30
2023-05-15T08:52:43.927Z,20.33
2023-05-15T08:55:11.093Z,20.35
2023-05-15T08:57:38.807Z,20.38
2023-05-15T09:00:09.268Z,20.36
2023-05-15T09:02:37.519Z,20.40
2023-05-15T09:05:06.210Z,20.43
2023-05-15T09:07:33.902Z,20.49
2023-05-15T09:10:02.820Z,20.56
2023-05-15T09:12:33.571Z,20.65
2023-05-15T09:15:10.241Z,20.79
2023-05-15T09:17:36.979Z,20.92
2023-05-15T09:20:06.061Z,21.08
2023-05-15T09:22:35.987Z,21.23
2023-05-15T09:25:04.049Z,21.40
2023-05-15T09:27:30.960Z,21.60
2023-05-15T09:30:08.411Z,21.84
2023-05-15T09:32:37.204Z,22.05
2023-05-15T09:35:04.574Z,22.27
2023-05-15T09:37:33.621Z,22.47
2023-05-15T09:40:09.587Z,22.67
2023-05-15T09:42:36.728Z,22.83
2023-05-15T09:45:03.411Z,23.01
2023-05-15T09:47:30.289Z,23.16
2023-05-15T09:49:56.870Z,23.30
2023-05-15T09:52:23.559Z,23.43
2023-05-15T09:54:50.701Z,23.55
2023-05-15T09:57:21.712Z,23.67
2023-05-15T09:59:49.135Z,23.77
2023-05-15T10:02:24.639Z,23.84
2023-05-15T10:04:56.827Z,23.91
2023-05-15T10:07:32.160Z,23.98
2023-05-15T10:09:59.333Z,24.06
2023-05-15T10:12:26.830Z,24.13
2023-05-15T10:14:56.515Z,24.23
2023-05-15T10:17:23.655Z,24.33
2023-05-15T10:19:58.213Z,24.40
2023-05-15T10:22:29.828Z,24.52
2023-05-15T10:25:06.146Z,24.60
2023-05-15T10:27:35.876Z,24.70
2023-05-15T10:30:03.860Z,24.80
2023-05-15T10:32:31.151Z,24.87
2023-05-15T10:34:58.261Z,24.96
2023-05-15T10:37:25.795Z,25.05
2023-05-15T10:39:54.114Z,25.14
2023-05-15T10:42:21.216Z,25.24
2023-05-15T10:44:48.907Z,25.34
2023-05-15T10:47:15.590Z,25.42
2023-05-15T10:49:42.326Z,25.51
2023-05-15T10:52:09.274Z,25.61
2023-05-15T10:54:35.822Z,25.69
2023-05-15T10:57:02.345Z,25.76
2023-05-15T10:59:33.036Z,25.86
2023-05-15T11:02:17.492Z,25.93
2023-05-15T11:04:44.416Z,25.98
2023-05-15T11:07:13.242Z,26.05
2023-05-15T11:09:40.469Z,26.12
2023-05-15T11:12:11.665Z,26.16
2023-05-15T11:14:41.067Z,26.20
2023-05-15T11:17:10.566Z,26.26
2023-05-15T11:19:40.540Z,26.27
2023-05-15T11:22:32.072Z,26.28
2023-05-15T11:25:02.395Z,26.29
2023-05-15T11:27:32.483Z,26.29
2023-05-15T11:30:10.232Z,26.30
2023-05-15T11:32:50.639Z,26.30
2023-05-15T11:35:30.910Z,26.28
2023-05-15T11:37:59.966Z,26.27
2023-05-15T11:40:29.257Z,26.25
2023-05-15T11:43:00.277Z,26.24
2023-05-15T11:45:29.678Z,26.22
2023-05-15T11:47:56.599Z,26.18
2023-05-15T11:50:25.348Z,26.16
2023-05-15T11:52:52.884Z,26.14
2023-05-15T11:55:20.319Z,26.10
2023-05-15T11:57:47.440Z,26.07
2023-05-15T12:00:14.453Z,26.05
2023-05-15T12:02:41.018Z,26.00
2023-05-15T12:05:08.909Z,25.97
2023-05-15T12:07:38.544Z,25.94
2023-05-15T12:10:06.188Z,25.94
2023-05-15T12:12:32.813Z,25.92
2023-05-15T12:15:00.143Z,25.90
2023-05-15T12:17:27.731Z,25.88
2023-05-15T12:19:57.100Z,25.87
2023-05-15T12:22:23.574Z,25.87
2023-05-15T12:24:50.017Z,25.86
2023-05-15T12:27:16.721Z,25.84
2023-05-15T12:29:43.327Z,25.82
2023-05-15T12:32:10.689Z,25.80
2023-05-15T12:34:37.390Z,25.78
2023-05-15T12:37:04.275Z,25.76
2023-05-15T12:39:30.869Z,25.73
2023-05-15T12:41:58.463Z,25.71
2023-05-15T12:44:26.755Z,25.69
2023-05-15T12:46:54.873Z,25.65
2023-05-15T12:49:22.726Z,25.62
2023-05-15T12:51:49.646Z,25.59
2023-05-15T12:54:18.871Z,25.55
2023-05-15T12:56:45.915Z,25.53
2023-05-15T12:59:12.427Z,25.51
2023-05-15T13:01:42.093Z,25.47
2023-05-15T13:04:09.894Z,25.44
2023-05-15T13:06:46.304Z,25.43
2023-05-15T13:09:14.120Z,25.39
2023-05-15T13:11:45.018Z,25.36
2023-05-15T13:14:17.053Z,25.34
2023-05-15T13:16:46.449Z,25.32
2023-05-15T13:19:13.621Z,25.29
2023-05-15T13:21:40.275Z,25.26
2023-05-15T13:24:09.832Z,25.23
2023-05-15T13:26:36.263Z,25.21
2023-05-15T13:29:02.878Z,25.20
2023-05-15T13:31:29.434Z,25.18
2023-05-15T13:33:56.021Z,25.14
2023-05-15T13:36:22.501Z,25.13
2023-05-15T13:38:48.979Z,25.11
2023-05-15T13:41:15.437Z,25.06
2023-05-15T13:43:41.935Z,25.07
2023-05-15T13:46:08.834Z,25.04
2023-05-15T13:48:35.324Z,25.03
2023-05-15T13:51:01.772Z,25.01
2023-05-15T13:53:28.273Z,25.00
2023-05-15T13:55:54.852Z,24.98
2023-05-15T13:58:21.535Z,24.95
2023-05-15T14:00:48.491Z,24.96
2023-05-15T14:03:15.564Z,24.93
2023-05-15T14:05:42.237Z,24.93
2023-05-15T14:08:09.152Z,24.91
2023-05-15T14:10:37.323Z,24.91
2023-05-15T14:13:03.843Z,24.89
2023-05-15T14:15:30.439Z,24.89
2023-05-15T14:17:57.026Z,24.89
2023-05-15T14:20:23.707Z,24.91
2023-05-15T14:22:50.215Z,24.93
2023-05-15T14:25:16.710Z,24.96
2023-05-15T14:27:43.155Z,24.96
2023-05-15T14:30:10.094Z,24.98
2023-05-15T14:32:36.654Z,25.00
2023-05-15T14:35:03.295Z,25.00
2023-05-15T14:37:29.756Z,25.02
2023-05-15T14:39:56.324Z,25.00
2023-05-15T14:42:22.800Z,24.99
2023-05-15T14:44:49.493Z,24.98
2023-05-15T14:47:16.782Z,24.95
2023-05-15T14:49:43.294Z,24.90
2023-05-15T14:52:11.731Z,24.88
2023-05-15T14:54:39.244Z,24.82
2023-05-15T14:57:06.094Z,24.80
2023-05-15T14:59:32.522Z,24.77
2023-05-15T15:01:59.018Z,24.76
2023-05-15T15:04:26.706Z,24.73
2023-05-15T15:06:56.770Z,24.70
2023-05-15T15:09:23.945Z,24.66
2023-05-15T15:11:51.275Z,24.63
2023-05-15T15:14:17.771Z,24.59
2023-05-15T15:16:45.935Z,24.56
2023-05-15T15:19:13.509Z,24.52
2023-05-15T15:21:40.389Z,24.49
2023-05-15T15:24:07.122Z,24.45
2023-05-15T15:26:33.601Z,24.41
2023-05-15T15:29:00.960Z,24.38
2023-05-15T15:31:29.540Z,24.34
2023-05-15T15:33:57.221Z,24.31
2023-05-15T15:36:24.771Z,24.25
2023-05-15T15:38:51.211Z,24.22
2023-05-15T15:41:18.201Z,24.19
2023-05-15T15:43:44.662Z,24.15
2023-05-15T15:46:11.168Z,24.12
2023-05-15T15:48:37.642Z,24.09
2023-05-15T15:51:05.301Z,24.05
2023-05-15T15:53:34.220Z,24.01
2023-05-15T15:56:01.343Z,23.98
2023-05-15T15:58:27.867Z,23.94
2023-05-15T16:00:54.398Z,23.91
2023-05-15T16:03:21.051Z,23.87
2023-05-15T16:05:47.499Z,23.83
2023-05-15T16:08:13.942Z,23.82
2023-05-15T16:10:40.763Z,23.79
2023-05-15T16:13:07.236Z,23.77
2023-05-15T16:15:33.674Z,23.72
2023-05-15T16:18:01.087Z,23.70
2023-05-15T16:20:27.849Z,23.68
2023-05-15T16:22:54.544Z,23.64
2023-05-15T16:25:21.064Z,23.61
2023-05-15T16:27:47.610Z,23.57
2023-05-15T16:30:14.333Z,23.54
2023-05-15T16:32:40.933Z,23.51
2023-05-15T16:35:08.028Z,23.49
2023-05-15T16:37:34.458Z,23.47
2023-05-15T16:40:00.918Z,23.45
2023-05-15T16:42:27.699Z,23.43
2023-05-15T16:44:54.174Z,23.41
2023-05-15T16:47:21.176Z,23.40
2023-05-15T16:49:49.980Z,23.36
2023-05-15T16:52:17.043Z,23.35
2023-05-15T16:54:43.525Z,23.34
2023-05-15T16:57:10.024Z,23.30
2023-05-15T16:59:36.476Z,23.26
2023-05-15T17:02:03.115Z,23.23
2023-05-15T17:04:32.971Z,23.21
2023-05-15T17:06:59.656Z,23.19
2023-05-15T17:09:26.307Z,23.16
2023-05-15T17:11:52.781Z,23.14
2023-05-15T17:14:19.332Z,23.13
2023-05-15T17:16:45.823Z,23.10
2023-05-15T17:19:12.605Z,23.08
2023-05-15T17:21:39.331Z,23.04
2023-05-15T17:24:05.928Z,23.02
2023-05-15T17:26:32.357Z,23.00
2023-05-15T17:28:58.779Z,22.96
2023-05-15T17:31:25.262Z,22.95
2023-05-15T17:33:51.726Z,22.93
2023-05-15T17:36:18.096Z,22.94
2023-05-15T17:38:44.617Z,22.96
2023-05-15T17:41:11.206Z,23.02
2023-05-15T17:43:37.726Z,23.07
2023-05-15T17:46:05.689Z,23.11
2023-05-15T17:48:32.829Z,23.14
2023-05-15T17:50:59.290Z,23.15
2023-05-15T17:53:25.820Z,23.17
2023-05-15T17:55:52.894Z,23.17
2023-05-15T17:58:21.105Z,23.18
2023-05-15T18:00:47.648Z,23.19
2023-05-15T18:03:14.424Z,23.22
2023-05-15T18:05:40.877Z,23.24
2023-05-15T18:08:07.413Z,23.25
2023-05-15T18:10:33.998Z,23.23
2023-05-15T18:13:00.558Z,23.21
2023-05-15T18:15:27.174Z,23.22
2023-05-15T18:17:53.782Z,23.22
2023-05-15T18:20:20.455Z,23.22
2023-05-15T18:22:47.008Z,23.22
2023-05-15T18:25:13.486Z,23.23
2023-05-15T18:27:39.998Z,23.22
2023-05-15T18:30:07.451Z,23.20
2023-05-15T18:32:34.032Z,23.20
2023-05-15T18:35:00.679Z,23.18
2023-05-15T18:37:27.183Z,23.18
2023-05-15T18:39:56.936Z,23.16
2023-05-15T18:42:25.228Z,23.14
2023-05-15T18:44:52.175Z,23.13
2023-05-15T18:47:18.953Z,23.13
2023-05-15T18:49:45.728Z,23.12
2023-05-15T18:52:12.412Z,23.10
2023-05-15T18:54:40.095Z,23.08
2023-05-15T18:57:06.569Z,23.07
2023-05-15T18:59:33.092Z,23.07
2023-05-15T19:01:59.571Z,23.06
2023-05-15T19:04:26.213Z,23.05
2023-05-15T19:06:52.655Z,23.06
2023-05-15T19:09:19.441Z,23.09
2023-05-15T19:11:46.934Z,23.12
2023-05-15T19:14:15.488Z,23.16
2023-05-15T19:16:42.183Z,23.20
2023-05-15T19:19:08.919Z,23.22
2023-05-15T19:21:36.994Z,23.25
2023-05-15T19:24:04.433Z,23.27
2023-05-15T19:26:31.001Z,23.28
2023-05-15T19:28:57.628Z,23.31
2023-05-15T19:31:31.404Z,23.33
2023-05-15T19:33:58.808Z,23.32
2023-05-15T19:36:25.356Z,23.34
2023-05-15T19:38:51.888Z,23.34
2023-05-15T19:41:18.416Z,23.36
2023-05-15T19:43:46.822Z,23.36
2023-05-15T19:46:13.528Z,23.38
2023-05-15T19:48:40.072Z,23.38
2023-05-15T19:51:06.691Z,23.38
2023-05-15T19:53:33.104Z,23.39
2023-05-15T19:55:59.455Z,23.40
2023-05-15T19:58:26.006Z,23.41
2023-05-15T20:00:53.925Z,23.40
2023-05-15T20:03:21.243Z,23.36
2023-05-15T20:05:48.326Z,23.34
2023-05-15T20:08:16.930Z,23.32
2023-05-15T20:10:44.369Z,23.29
2023-05-15T20:13:11.400Z,23.28
2023-05-15T20:15:40.014Z,23.25
2023-05-15T20:18:07.238Z,23.23
2023-05-15T20:20:34.038Z,23.19
2023-05-15T20:23:00.550Z,23.17
2023-05-15T20:25:28.634Z,23.15
2023-05-15T20:27:57.016Z,23.12
2023-05-15T20:30:24.097Z,23.11
2023-05-15T20:32:50.869Z,23.08
2023-05-15T20:35:17.357Z,23.08
2023-05-15T20:37:44.281Z,23.07
2023-05-15T20:40:12.833Z,23.07
2023-05-15T20:42:39.821Z,23.06
2023-05-15T20:45:08.433Z,23.05
2023-05-15T20:47:35.507Z,23.03
2023-05-15T20:50:02.098Z,22.98
2023-05-15T20:52:28.666Z,22.96
2023-05-15T20:54:55.189Z,22.94
2023-05-15T20:57:21.636Z,22.90
2023-05-15T20:59:48.092Z,22.89
2023-05-15T21:02:15.088Z,22.87
2023-05-15T21:04:41.665Z,22.86
2023-05-15T21:07:08.385Z,22.83
2023-05-15T21:09:34.828Z,22.81
2023-05-15T21:12:01.357Z,22.79
2023-05-15T21:14:27.891Z,22.79
2023-05-15T21:16:54.370Z,22.75
2023-05-15T21:19:21.652Z,22.76
2023-05-15T21:21:48.105Z,22.74
2023-05-15T21:24:14.579Z,22.75
2023-05-15T21:26:41.027Z,22.77
2023-05-15T21:29:07.473Z,22.76
2023-05-15T21:31:33.958Z,22.76
2023-05-15T21:34:00.552Z,22.76
2023-05-15T21:36:26.985Z,22.73
2023-05-15T21:38:53.426Z,22.72
2023-05-15T21:41:19.859Z,22.70
2023-05-15T21:43:46.286Z,22.69
2023-05-15T21:46:12.770Z,22.66
2023-05-15T21:48:39.203Z,22.63
2023-05-15T21:51:05.678Z,22.62
2023-05-15T21:53:32.141Z,22.60
2023-05-15T21:56:00.820Z,22.59
2023-05-15T21:58:27.730Z,22.57
2023-05-15T22:00:54.340Z,22.56
2023-05-15T22:03:21.136Z,22.55
2023-05-15T22:05:49.990Z,22.54
2023-05-15T22:08:16.772Z,22.53
2023-05-15T22:10:43.246Z,22.51
2023-05-15T22:13:09.899Z,22.49
2023-05-15T22:15:36.855Z,22.47
2023-05-15T22:18:05.540Z,22.46
2023-05-15T22:20:32.763Z,22.45
2023-05-15T22:22:59.190Z,22.42
2023-05-15T22:25:25.594Z,22.42
2023-05-15T22:27:52.013Z,22.40
2023-05-15T22:30:18.755Z,22.38
2023-05-15T22:32:45.353Z,22.37
2023-05-15T22:35:11.981Z,22.37
2023-05-15T22:37:40.662Z,22.35
2023-05-15T22:40:09.708Z,22.34
2023-05-15T22:42:36.160Z,22.33
2023-05-15T22:45:03.466Z,22.31
2023-05-15T22:47:30.031Z,22.31
2023-05-15T22:49:56.838Z,22.28
2023-05-15T22:52:23.536Z,22.27
2023-05-15T22:54:49.970Z,22.26
2023-05-15T22:57:16.317Z,22.26
2023-05-15T22:59:43.167Z,22.23
2023-05-15T23:02:09.615Z,22.21
2023-05-15T23:04:36.233Z,22.20
2023-05-15T23:07:02.675Z,22.18
2023-05-15T23:09:29.117Z,22.18
2023-05-15T23:11:55.724Z,22.18
2023-05-15T23:14:22.385Z,22.17
2023-05-15T23:16:49.847Z,22.15
2023-05-15T23:19:16.616Z,22.15
2023-05-15T23:21:43.087Z,22.14
2023-05-15T23:24:09.390Z,22.15
2023-05-15T23:26:35.802Z,22.15
2023-05-15T23:29:02.200Z,22.15
2023-05-15T23:31:28.710Z,22.15
2023-05-15T23:33:55.258Z,22.14
2023-05-15T23:36:22.020Z,22.13
2023-05-15T23:38:48.465Z,22.12
2023-05-15T23:41:14.807Z,22.13
2023-05-15T23:43:41.222Z,22.11
2023-05-15T23:46:07.612Z,22.11
2023-05-15T23:48:34.103Z,22.08
2023-05-15T23:51:00.541Z,22.08
2023-05-15T23:53:26.995Z,22.06
2023-05-15T23:55:53.374Z,22.04
2023-05-15T23:58:19.839Z,22.02
